sensor_id;sensor_type;location;lat;lon;timestamp;P1;durP1;ratioP1;P2;durP2;ratioP2
50355;SDS011;36264;51.296;-0.602;2022-07-21T00:00:45;6.20;;;3.45;;
50355;SDS011;36264;51.296;-0.602;2022-07-21T00:03:11;7.75;;;3.83;;
50355;SDS011;36264;51.296;-0.602;2022-07-21T00:05:36;5.35;;;3.15;;
50355;SDS011;36264;51.296;-0.602;2022-07-21T00:08:02;5.63;;;3.10;;
50355;SDS011;36264;51.296;-0.602;2022-07-21T00:10:28;6.50;;;3.10;;
50355;SDS011;36264;51.296;-0.602;2022-07-21T00:12:54;4.80;;;2.83;;
50355;SDS011;36264;51.296;-0.602;2022-07-21T00:15:20;6.07;;;3.03;;
50355;SDS011;36264;51.296;-0.602;2022-07-21T00:17:47;4.13;;;2.42;;
50355;SDS011;36264;51.296;-0.602;2022-07-21T00:20:13;4.75;;;2.63;;
50355;SDS011;36264;51.296;-0.602;2022-07-21T00:22:40;4.80;;;2.28;;
50355;SDS011;36264;51.296;-0.602;2022-07-21T00:25:06;4.43;;;2.33;;
50355;SDS011;36264;51.296;-0.602;2022-07-21T00:27:33;3.92;;;2.20;;
50355;SDS011;36264;51.296;-0.602;2022-07-21T00:29:59;3.55;;;2.25;;
50355;SDS011;36264;51.296;-0.602;2022-07-21T00:32:25;4.15;;;2.20;;
50355;SDS011;36264;51.296;-0.602;2022-07-21T00:34:51;3.33;;;2.05;;
50355;SDS011;36264;51.296;-0.602;2022-07-21T00:37:16;4.53;;;2.25;;
50355;SDS011;36264;51.296;-0.602;2022-07-21T00:39:41;4.20;;;2.40;;
50355;SDS011;36264;51.296;-0.602;2022-07-21T00:42:07;4.18;;;2.30;;
50355;SDS011;36264;51.296;-0.602;2022-07-21T00:44:33;4.03;;;1.92;;
50355;SDS011;36264;51.296;-0.602;2022-07-21T00:46:58;3.50;;;2.10;;
50355;SDS011;36264;51.296;-0.602;2022-07-21T00:49:24;3.55;;;2.30;;
50355;SDS011;36264;51.296;-0.602;2022-07-21T00:51:50;4.22;;;2.05;;
50355;SDS011;36264;51.296;-0.602;2022-07-21T00:54:16;3.75;;;2.08;;
50355;SDS011;36264;51.296;-0.602;2022-07-21T00:56:42;5.40;;;2.45;;
50355;SDS011;36264;51.296;-0.602;2022-07-21T00:59:09;2.92;;;1.90;;
50355;SDS011;36264;51.296;-0.602;2022-07-21T01:01:35;4.22;;;2.05;;
50355;SDS011;36264;51.296;-0.602;2022-07-21T01:04:01;3.65;;;2.00;;
50355;SDS011;36264;51.296;-0.602;2022-07-21T01:06:26;4.07;;;1.80;;
50355;SDS011;36264;51.296;-0.602;2022-07-21T01:08:52;2.78;;;1.70;;
50355;SDS011;36264;51.296;-0.602;2022-07-21T01:11:18;4.15;;;2.28;;
50355;SDS011;36264;51.296;-0.602;2022-07-21T01:13:46;3.58;;;2.05;;
50355;SDS011;36264;51.296;-0.602;2022-07-21T01:16:12;5.00;;;2.42;;
50355;SDS011;36264;51.296;-0.602;2022-07-21T01:18:38;4.53;;;1.90;;
50355;SDS011;36264;51.296;-0.602;2022-07-21T01:23:37;3.20;;;2.00;;
50355;SDS011;36264;51.296;-0.602;2022-07-21T01:26:03;3.63;;;2.05;;
50355;SDS011;36264;51.296;-0.602;2022-07-21T01:28:28;4.25;;;2.15;;
50355;SDS011;36264;51.296;-0.602;2022-07-21T01:30:53;6.78;;;2.65;;
50355;SDS011;36264;51.296;-0.602;2022-07-21T01:33:19;3.55;;;1.92;;
50355;SDS011;36264;51.296;-0.602;2022-07-21T01:35:44;3.47;;;2.10;;
50355;SDS011;36264;51.296;-0.602;2022-07-21T01:38:10;5.50;;;2.60;;
50355;SDS011;36264;51.296;-0.602;2022-07-21T01:40:57;6.35;;;2.60;;
50355;SDS011;36264;51.296;-0.602;2022-07-21T01:43:41;6.45;;;3.03;;
50355;SDS011;36264;51.296;-0.602;2022-07-21T01:46:08;5.72;;;2.70;;
50355;SDS011;36264;51.296;-0.602;2022-07-21T01:48:35;10.05;;;3.88;;
50355;SDS011;36264;51.296;-0.602;2022-07-21T01:51:01;9.82;;;4.35;;
50355;SDS011;36264;51.296;-0.602;2022-07-21T01:53:26;6.95;;;3.83;;
50355;SDS011;36264;51.296;-0.602;2022-07-21T01:55:51;8.18;;;3.88;;
50355;SDS011;36264;51.296;-0.602;2022-07-21T01:58:17;7.63;;;3.40;;
50355;SDS011;36264;51.296;-0.602;2022-07-21T02:00:42;7.18;;;3.25;;
50355;SDS011;36264;51.296;-0.602;2022-07-21T02:03:07;8.25;;;3.35;;
50355;SDS011;36264;51.296;-0.602;2022-07-21T02:05:33;5.45;;;3.25;;
50355;SDS011;36264;51.296;-0.602;2022-07-21T02:07:58;5.85;;;2.72;;
50355;SDS011;36264;51.296;-0.602;2022-07-21T02:10:23;5.80;;;2.97;;
50355;SDS011;36264;51.296;-0.602;2022-07-21T02:12:49;6.25;;;2.70;;
50355;SDS011;36264;51.296;-0.602;2022-07-21T02:15:14;11.65;;;3.95;;
50355;SDS011;36264;51.296;-0.602;2022-07-21T02:17:39;5.47;;;2.78;;
50355;SDS011;36264;51.296;-0.602;2022-07-21T02:20:05;3.83;;;2.50;;
50355;SDS011;36264;51.296;-0.602;2022-07-21T02:22:31;5.13;;;2.50;;
50355;SDS011;36264;51.296;-0.602;2022-07-21T02:24:56;3.92;;;2.40;;
50355;SDS011;36264;51.296;-0.602;2022-07-21T02:27:21;3.47;;;1.92;;
50355;SDS011;36264;51.296;-0.602;2022-07-21T02:29:47;4.70;;;2.70;;
50355;SDS011;36264;51.296;-0.602;2022-07-21T02:32:12;4.57;;;2.40;;
50355;SDS011;36264;51.296;-0.602;2022-07-21T02:34:38;4.13;;;2.42;;
50355;SDS011;36264;51.296;-0.602;2022-07-21T02:37:03;4.97;;;2.47;;
50355;SDS011;36264;51.296;-0.602;2022-07-21T02:39:28;4.45;;;2.08;;
50355;SDS011;36264;51.296;-0.602;2022-07-21T02:41:54;5.85;;;2.30;;
50355;SDS011;36264;51.296;-0.602;2022-07-21T02:44:19;5.18;;;2.28;;
50355;SDS011;36264;51.296;-0.602;2022-07-21T02:46:45;6.35;;;2.50;;
50355;SDS011;36264;51.296;-0.602;2022-07-21T02:49:10;5.10;;;1.90;;
50355;SDS011;36264;51.296;-0.602;2022-07-21T02:51:35;3.03;;;2.00;;
50355;SDS011;36264;51.296;-0.602;2022-07-21T02:54:01;4.25;;;2.10;;
50355;SDS011;36264;51.296;-0.602;2022-07-21T02:56:26;3.65;;;2.15;;
50355;SDS011;36264;51.296;-0.602;2022-07-21T02:58:51;4.07;;;1.90;;
50355;SDS011;36264;51.296;-0.602;2022-07-21T03:01:17;4.70;;;2.30;;
50355;SDS011;36264;51.296;-0.602;2022-07-21T03:03:43;5.07;;;2.20;;
50355;SDS011;36264;51.296;-0.602;2022-07-21T03:06:09;3.85;;;2.08;;
50355;SDS011;36264;51.296;-0.602;2022-07-21T03:08:34;3.30;;;2.00;;
50355;SDS011;36264;51.296;-0.602;2022-07-21T03:11:00;4.10;;;2.17;;
50355;SDS011;36264;51.296;-0.602;2022-07-21T03:13:26;4.05;;;2.22;;
50355;SDS011;36264;51.296;-0.602;2022-07-21T03:15:51;3.63;;;2.05;;
50355;SDS011;36264;51.296;-0.602;2022-07-21T03:18:17;4.00;;;2.10;;
50355;SDS011;36264;51.296;-0.602;2022-07-21T03:20:42;4.00;;;2.17;;
50355;SDS011;36264;51.296;-0.602;2022-07-21T03:23:09;2.85;;;1.77;;
50355;SDS011;36264;51.296;-0.602;2022-07-21T03:25:34;3.53;;;1.80;;
50355;SDS011;36264;51.296;-0.602;2022-07-21T03:28:00;3.28;;;1.88;;
50355;SDS011;36264;51.296;-0.602;2022-07-21T03:30:26;3.83;;;1.63;;
50355;SDS011;36264;51.296;-0.602;2022-07-21T03:32:53;2.72;;;1.58;;
50355;SDS011;36264;51.296;-0.602;2022-07-21T03:35:19;3.35;;;1.75;;
50355;SDS011;36264;51.296;-0.602;2022-07-21T03:37:50;2.30;;;1.60;;
50355;SDS011;36264;51.296;-0.602;2022-07-21T03:40:17;3.47;;;1.83;;
50355;SDS011;36264;51.296;-0.602;2022-07-21T03:42:44;3.95;;;1.88;;
50355;SDS011;36264;51.296;-0.602;2022-07-21T03:45:10;2.28;;;1.50;;
50355;SDS011;36264;51.296;-0.602;2022-07-21T03:47:36;2.88;;;1.65;;
50355;SDS011;36264;51.296;-0.602;2022-07-21T03:50:02;2.90;;;1.70;;
50355;SDS011;36264;51.296;-0.602;2022-07-21T03:52:29;3.17;;;2.00;;
50355;SDS011;36264;51.296;-0.602;2022-07-21T03:54:54;5.25;;;1.90;;
50355;SDS011;36264;51.296;-0.602;2022-07-21T03:57:40;2.72;;;1.70;;
50355;SDS011;36264;51.296;-0.602;2022-07-21T04:00:06;3.78;;;1.90;;
50355;SDS011;36264;51.296;-0.602;2022-07-21T04:02:34;2.13;;;1.50;;
50355;SDS011;36264;51.296;-0.602;2022-07-21T04:04:59;2.55;;;1.70;;
50355;SDS011;36264;51.296;-0.602;2022-07-21T04:07:25;4.13;;;1.60;;
50355;SDS011;36264;51.296;-0.602;2022-07-21T04:09:50;2.47;;;1.50;;
50355;SDS011;36264;51.296;-0.602;2022-07-21T04:12:15;4.07;;;1.90;;
50355;SDS011;36264;51.296;-0.602;2022-07-21T04:14:41;3.20;;;1.42;;
50355;SDS011;36264;51.296;-0.602;2022-07-21T04:17:06;2.30;;;1.70;;
50355;SDS011;36264;51.296;-0.602;2022-07-21T04:19:31;3.47;;;1.60;;
50355;SDS011;36264;51.296;-0.602;2022-07-21T04:21:57;3.72;;;1.70;;
50355;SDS011;36264;51.296;-0.602;2022-07-21T04:24:23;2.80;;;1.52;;
50355;SDS011;36264;51.296;-0.602;2022-07-21T04:26:48;4.68;;;1.98;;
50355;SDS011;36264;51.296;-0.602;2022-07-21T04:29:14;1.90;;;1.50;;
50355;SDS011;36264;51.296;-0.602;2022-07-21T04:31:39;4.38;;;1.90;;
50355;SDS011;36264;51.296;-0.602;2022-07-21T04:34:04;3.13;;;1.52;;
50355;SDS011;36264;51.296;-0.602;2022-07-21T04:36:30;2.85;;;1.90;;
50355;SDS011;36264;51.296;-0.602;2022-07-21T04:38:55;3.58;;;1.75;;
50355;SDS011;36264;51.296;-0.602;2022-07-21T04:41:21;3.80;;;1.98;;
50355;SDS011;36264;51.296;-0.602;2022-07-21T04:43:46;2.58;;;1.63;;
50355;SDS011;36264;51.296;-0.602;2022-07-21T04:46:11;3.45;;;1.70;;
50355;SDS011;36264;51.296;-0.602;2022-07-21T04:48:37;3.00;;;1.70;;
50355;SDS011;36264;51.296;-0.602;2022-07-21T04:51:03;3.42;;;1.80;;
50355;SDS011;36264;51.296;-0.602;2022-07-21T04:53:28;2.83;;;1.77;;
50355;SDS011;36264;51.296;-0.602;2022-07-21T04:55:54;3.20;;;1.73;;
50355;SDS011;36264;51.296;-0.602;2022-07-21T04:58:19;3.08;;;1.60;;
50355;SDS011;36264;51.296;-0.602;2022-07-21T05:00:44;3.17;;;1.95;;
50355;SDS011;36264;51.296;-0.602;2022-07-21T05:03:10;2.42;;;1.45;;
50355;SDS011;36264;51.296;-0.602;2022-07-21T05:05:37;2.75;;;1.40;;
50355;SDS011;36264;51.296;-0.602;2022-07-21T05:08:03;3.45;;;1.70;;
50355;SDS011;36264;51.296;-0.602;2022-07-21T05:10:28;2.75;;;1.85;;
50355;SDS011;36264;51.296;-0.602;2022-07-21T05:12:53;3.33;;;1.77;;
50355;SDS011;36264;51.296;-0.602;2022-07-21T05:15:19;2.60;;;1.67;;
50355;SDS011;36264;51.296;-0.602;2022-07-21T05:17:44;2.83;;;1.90;;
50355;SDS011;36264;51.296;-0.602;2022-07-21T05:20:10;3.13;;;1.85;;
50355;SDS011;36264;51.296;-0.602;2022-07-21T05:22:37;4.03;;;1.70;;
50355;SDS011;36264;51.296;-0.602;2022-07-21T05:25:03;6.10;;;2.03;;
50355;SDS011;36264;51.296;-0.602;2022-07-21T05:27:29;3.53;;;1.70;;
50355;SDS011;36264;51.296;-0.602;2022-07-21T05:29:54;2.45;;;1.63;;
50355;SDS011;36264;51.296;-0.602;2022-07-21T05:32:20;4.80;;;2.00;;
50355;SDS011;36264;51.296;-0.602;2022-07-21T05:34:46;4.93;;;2.15;;
50355;SDS011;36264;51.296;-0.602;2022-07-21T05:37:11;4.88;;;2.10;;
50355;SDS011;36264;51.296;-0.602;2022-07-21T05:39:37;5.22;;;2.30;;
50355;SDS011;36264;51.296;-0.602;2022-07-21T05:42:02;3.33;;;1.67;;
50355;SDS011;36264;51.296;-0.602;2022-07-21T05:44:28;3.42;;;1.88;;
50355;SDS011;36264;51.296;-0.602;2022-07-21T05:46:53;2.75;;;1.70;;
50355;SDS011;36264;51.296;-0.602;2022-07-21T05:49:19;3.35;;;1.60;;
50355;SDS011;36264;51.296;-0.602;2022-07-21T05:51:44;6.63;;;2.22;;
50355;SDS011;36264;51.296;-0.602;2022-07-21T05:54:10;5.72;;;2.30;;
50355;SDS011;36264;51.296;-0.602;2022-07-21T05:56:35;4.05;;;2.15;;
50355;SDS011;36264;51.296;-0.602;2022-07-21T05:59:00;4.75;;;2.28;;
50355;SDS011;36264;51.296;-0.602;2022-07-21T06:01:26;5.82;;;1.92;;
50355;SDS011;36264;51.296;-0.602;2022-07-21T06:03:51;3.53;;;2.25;;
50355;SDS011;36264;51.296;-0.602;2022-07-21T06:06:17;4.88;;;2.40;;
50355;SDS011;36264;51.296;-0.602;2022-07-21T06:08:45;5.70;;;2.75;;
50355;SDS011;36264;51.296;-0.602;2022-07-21T06:11:13;5.68;;;2.75;;
50355;SDS011;36264;51.296;-0.602;2022-07-21T06:13:39;4.68;;;2.60;;
50355;SDS011;36264;51.296;-0.602;2022-07-21T06:16:05;8.45;;;2.83;;
50355;SDS011;36264;51.296;-0.602;2022-07-21T06:18:31;4.35;;;2.10;;
50355;SDS011;36264;51.296;-0.602;2022-07-21T06:20:57;5.13;;;2.40;;
50355;SDS011;36264;51.296;-0.602;2022-07-21T06:23:22;6.85;;;2.67;;
50355;SDS011;36264;51.296;-0.602;2022-07-21T06:25:48;5.03;;;2.55;;
50355;SDS011;36264;51.296;-0.602;2022-07-21T06:28:13;6.18;;;2.40;;
50355;SDS011;36264;51.296;-0.602;2022-07-21T06:30:39;5.80;;;2.38;;
50355;SDS011;36264;51.296;-0.602;2022-07-21T06:33:04;4.95;;;2.42;;
50355;SDS011;36264;51.296;-0.602;2022-07-21T06:35:30;5.38;;;2.92;;
50355;SDS011;36264;51.296;-0.602;2022-07-21T06:37:55;6.40;;;2.63;;
50355;SDS011;36264;51.296;-0.602;2022-07-21T06:40:21;5.70;;;2.63;;
50355;SDS011;36264;51.296;-0.602;2022-07-21T06:42:46;7.53;;;2.90;;
50355;SDS011;36264;51.296;-0.602;2022-07-21T06:45:12;7.40;;;2.67;;
50355;SDS011;36264;51.296;-0.602;2022-07-21T06:47:37;7.53;;;2.95;;
50355;SDS011;36264;51.296;-0.602;2022-07-21T06:50:03;7.22;;;2.90;;
50355;SDS011;36264;51.296;-0.602;2022-07-21T06:52:29;8.50;;;3.50;;
50355;SDS011;36264;51.296;-0.602;2022-07-21T06:54:55;8.13;;;3.70;;
50355;SDS011;36264;51.296;-0.602;2022-07-21T06:57:21;8.63;;;3.20;;
50355;SDS011;36264;51.296;-0.602;2022-07-21T06:59:47;5.60;;;2.75;;
50355;SDS011;36264;51.296;-0.602;2022-07-21T07:02:12;6.13;;;3.00;;
50355;SDS011;36264;51.296;-0.602;2022-07-21T07:04:38;6.35;;;2.90;;
50355;SDS011;36264;51.296;-0.602;2022-07-21T07:07:03;7.00;;;3.00;;
50355;SDS011;36264;51.296;-0.602;2022-07-21T07:09:28;7.13;;;3.42;;
50355;SDS011;36264;51.296;-0.602;2022-07-21T07:11:54;7.45;;;2.90;;
50355;SDS011;36264;51.296;-0.602;2022-07-21T07:14:27;6.47;;;3.53;;
50355;SDS011;36264;51.296;-0.602;2022-07-21T07:16:53;8.85;;;3.10;;
50355;SDS011;36264;51.296;-0.602;2022-07-21T07:19:18;5.82;;;2.65;;
50355;SDS011;36264;51.296;-0.602;2022-07-21T07:21:44;8.10;;;2.92;;
50355;SDS011;36264;51.296;-0.602;2022-07-21T07:24:09;4.80;;;2.60;;
50355;SDS011;36264;51.296;-0.602;2022-07-21T07:26:35;7.72;;;2.63;;
50355;SDS011;36264;51.296;-0.602;2022-07-21T07:29:00;4.10;;;2.35;;
50355;SDS011;36264;51.296;-0.602;2022-07-21T07:31:25;5.22;;;2.88;;
50355;SDS011;36264;51.296;-0.602;2022-07-21T07:33:51;5.88;;;2.63;;
50355;SDS011;36264;51.296;-0.602;2022-07-21T07:36:16;6.57;;;2.80;;
50355;SDS011;36264;51.296;-0.602;2022-07-21T07:38:42;5.13;;;2.45;;
50355;SDS011;36264;51.296;-0.602;2022-07-21T07:41:07;5.47;;;2.60;;
50355;SDS011;36264;51.296;-0.602;2022-07-21T07:43:32;7.18;;;2.72;;
50355;SDS011;36264;51.296;-0.602;2022-07-21T07:45:58;9.63;;;3.40;;
50355;SDS011;36264;51.296;-0.602;2022-07-21T07:48:25;4.30;;;2.20;;
50355;SDS011;36264;51.296;-0.602;2022-07-21T07:50:50;4.63;;;2.20;;
50355;SDS011;36264;51.296;-0.602;2022-07-21T07:53:16;4.68;;;2.25;;
50355;SDS011;36264;51.296;-0.602;2022-07-21T07:55:41;6.00;;;2.50;;
50355;SDS011;36264;51.296;-0.602;2022-07-21T07:58:07;5.55;;;2.30;;
50355;SDS011;36264;51.296;-0.602;2022-07-21T08:00:32;5.65;;;2.60;;
50355;SDS011;36264;51.296;-0.602;2022-07-21T08:02:57;5.43;;;2.28;;
50355;SDS011;36264;51.296;-0.602;2022-07-21T08:05:23;3.78;;;2.17;;
50355;SDS011;36264;51.296;-0.602;2022-07-21T08:07:48;9.57;;;2.53;;
50355;SDS011;36264;51.296;-0.602;2022-07-21T08:10:14;5.68;;;2.42;;
50355;SDS011;36264;51.296;-0.602;2022-07-21T08:12:39;4.30;;;2.03;;
50355;SDS011;36264;51.296;-0.602;2022-07-21T08:15:06;4.70;;;2.20;;
50355;SDS011;36264;51.296;-0.602;2022-07-21T08:17:32;4.38;;;2.25;;
50355;SDS011;36264;51.296;-0.602;2022-07-21T08:19:57;3.95;;;2.08;;
50355;SDS011;36264;51.296;-0.602;2022-07-21T08:22:23;5.60;;;2.38;;
50355;SDS011;36264;51.296;-0.602;2022-07-21T08:24:48;4.90;;;2.58;;
50355;SDS011;36264;51.296;-0.602;2022-07-21T08:27:14;5.60;;;2.20;;
50355;SDS011;36264;51.296;-0.602;2022-07-21T08:29:39;7.00;;;2.45;;
50355;SDS011;36264;51.296;-0.602;2022-07-21T08:32:05;3.05;;;1.98;;
50355;SDS011;36264;51.296;-0.602;2022-07-21T08:34:30;6.22;;;2.38;;
50355;SDS011;36264;51.296;-0.602;2022-07-21T08:36:56;5.25;;;2.10;;
50355;SDS011;36264;51.296;-0.602;2022-07-21T08:39:22;4.43;;;2.40;;
50355;SDS011;36264;51.296;-0.602;2022-07-21T08:41:47;4.50;;;2.20;;
50355;SDS011;36264;51.296;-0.602;2022-07-21T08:44:14;5.13;;;2.00;;
50355;SDS011;36264;51.296;-0.602;2022-07-21T08:46:40;4.72;;;2.10;;
50355;SDS011;36264;51.296;-0.602;2022-07-21T08:49:07;4.90;;;2.25;;
50355;SDS011;36264;51.296;-0.602;2022-07-21T08:51:34;4.10;;;2.22;;
50355;SDS011;36264;51.296;-0.602;2022-07-21T08:54:01;4.65;;;2.50;;
50355;SDS011;36264;51.296;-0.602;2022-07-21T08:56:27;5.65;;;2.10;;
50355;SDS011;36264;51.296;-0.602;2022-07-21T08:58:52;4.35;;;2.10;;
50355;SDS011;36264;51.296;-0.602;2022-07-21T09:01:18;3.58;;;2.10;;
50355;SDS011;36264;51.296;-0.602;2022-07-21T09:03:43;5.85;;;2.40;;
50355;SDS011;36264;51.296;-0.602;2022-07-21T09:06:12;3.20;;;1.90;;
50355;SDS011;36264;51.296;-0.602;2022-07-21T09:08:50;5.88;;;2.00;;
50355;SDS011;36264;51.296;-0.602;2022-07-21T09:11:26;3.70;;;2.00;;
50355;SDS011;36264;51.296;-0.602;2022-07-21T09:14:05;5.18;;;2.13;;
50355;SDS011;36264;51.296;-0.602;2022-07-21T09:19:07;4.53;;;2.15;;
50355;SDS011;36264;51.296;-0.602;2022-07-21T09:21:41;4.03;;;2.40;;
50355;SDS011;36264;51.296;-0.602;2022-07-21T09:24:50;4.30;;;2.20;;
50355;SDS011;36264;51.296;-0.602;2022-07-21T09:27:10;3.63;;;2.20;;
50355;SDS011;36264;51.296;-0.602;2022-07-21T09:29:45;4.90;;;2.25;;
50355;SDS011;36264;51.296;-0.602;2022-07-21T09:32:14;3.63;;;2.20;;
50355;SDS011;36264;51.296;-0.602;2022-07-21T09:34:40;3.83;;;2.20;;
50355;SDS011;36264;51.296;-0.602;2022-07-21T09:37:06;4.60;;;2.13;;
50355;SDS011;36264;51.296;-0.602;2022-07-21T09:42:12;3.67;;;2.30;;
50355;SDS011;36264;51.296;-0.602;2022-07-21T09:44:41;5.10;;;2.38;;
50355;SDS011;36264;51.296;-0.602;2022-07-21T09:47:12;3.70;;;2.25;;
50355;SDS011;36264;51.296;-0.602;2022-07-21T09:49:38;6.55;;;2.70;;
50355;SDS011;36264;51.296;-0.602;2022-07-21T09:54:51;5.72;;;2.65;;
50355;SDS011;36264;51.296;-0.602;2022-07-21T09:57:19;4.57;;;2.30;;
50355;SDS011;36264;51.296;-0.602;2022-07-21T09:59:46;4.63;;;2.40;;
50355;SDS011;36264;51.296;-0.602;2022-07-21T10:02:21;3.83;;;2.20;;
50355;SDS011;36264;51.296;-0.602;2022-07-21T10:04:51;4.57;;;2.20;;
50355;SDS011;36264;51.296;-0.602;2022-07-21T10:07:22;3.88;;;2.40;;
50355;SDS011;36264;51.296;-0.602;2022-07-21T10:09:48;6.00;;;3.00;;
50355;SDS011;36264;51.296;-0.602;2022-07-21T10:12:17;4.20;;;2.55;;
50355;SDS011;36264;51.296;-0.602;2022-07-21T10:14:43;4.88;;;2.47;;
50355;SDS011;36264;51.296;-0.602;2022-07-21T10:17:09;4.13;;;2.55;;
50355;SDS011;36264;51.296;-0.602;2022-07-21T10:19:37;4.70;;;2.45;;
50355;SDS011;36264;51.296;-0.602;2022-07-21T10:22:13;3.80;;;2.20;;
50355;SDS011;36264;51.296;-0.602;2022-07-21T10:24:56;6.55;;;2.60;;
50355;SDS011;36264;51.296;-0.602;2022-07-21T10:27:22;3.95;;;2.60;;
50355;SDS011;36264;51.296;-0.602;2022-07-21T10:32:16;4.20;;;2.60;;
50355;SDS011;36264;51.296;-0.602;2022-07-21T10:34:44;3.50;;;2.40;;
50355;SDS011;36264;51.296;-0.602;2022-07-21T10:37:11;7.07;;;3.08;;
50355;SDS011;36264;51.296;-0.602;2022-07-21T10:39:56;4.03;;;2.60;;
50355;SDS011;36264;51.296;-0.602;2022-07-21T10:42:22;4.93;;;2.55;;
50355;SDS011;36264;51.296;-0.602;2022-07-21T10:44:47;4.85;;;2.67;;
50355;SDS011;36264;51.296;-0.602;2022-07-21T10:55:20;4.38;;;2.40;;
50355;SDS011;36264;51.296;-0.602;2022-07-21T11:01:48;3.80;;;2.25;;
50355;SDS011;36264;51.296;-0.602;2022-07-21T11:04:14;3.45;;;2.00;;
50355;SDS011;36264;51.296;-0.602;2022-07-21T11:06:54;3.58;;;2.38;;
50355;SDS011;36264;51.296;-0.602;2022-07-21T11:10:13;3.88;;;2.20;;
50355;SDS011;36264;51.296;-0.602;2022-07-21T11:12:54;4.50;;;2.30;;
50355;SDS011;36264;51.296;-0.602;2022-07-21T11:18:09;3.47;;;2.20;;
50355;SDS011;36264;51.296;-0.602;2022-07-21T11:20:35;3.35;;;2.15;;
50355;SDS011;36264;51.296;-0.602;2022-07-21T11:23:00;3.83;;;2.45;;
50355;SDS011;36264;51.296;-0.602;2022-07-21T11:25:30;4.30;;;2.47;;
50355;SDS011;36264;51.296;-0.602;2022-07-21T11:27:58;4.72;;;2.55;;
50355;SDS011;36264;51.296;-0.602;2022-07-21T11:30:24;3.80;;;2.33;;
50355;SDS011;36264;51.296;-0.602;2022-07-21T11:32:49;3.95;;;2.60;;
50355;SDS011;36264;51.296;-0.602;2022-07-21T11:35:15;3.33;;;2.30;;
50355;SDS011;36264;51.296;-0.602;2022-07-21T11:37:44;4.13;;;2.25;;
50355;SDS011;36264;51.296;-0.602;2022-07-21T11:42:39;4.13;;;2.65;;
50355;SDS011;36264;51.296;-0.602;2022-07-21T11:45:07;4.18;;;2.30;;
50355;SDS011;36264;51.296;-0.602;2022-07-21T11:47:33;4.35;;;2.42;;
50355;SDS011;36264;51.296;-0.602;2022-07-21T11:50:00;5.05;;;2.95;;
50355;SDS011;36264;51.296;-0.602;2022-07-21T11:52:32;4.68;;;2.33;;
50355;SDS011;36264;51.296;-0.602;2022-07-21T11:55:00;4.47;;;2.35;;
50355;SDS011;36264;51.296;-0.602;2022-07-21T11:57:27;3.42;;;2.13;;
50355;SDS011;36264;51.296;-0.602;2022-07-21T11:59:54;4.72;;;2.53;;
50355;SDS011;36264;51.296;-0.602;2022-07-21T12:02:24;4.22;;;2.40;;
50355;SDS011;36264;51.296;-0.602;2022-07-21T12:04:53;4.63;;;2.40;;
50355;SDS011;36264;51.296;-0.602;2022-07-21T12:09:48;3.53;;;2.20;;
50355;SDS011;36264;51.296;-0.602;2022-07-21T12:12:21;3.27;;;2.37;;
50355;SDS011;36264;51.296;-0.602;2022-07-21T12:14:55;3.40;;;2.38;;
50355;SDS011;36264;51.296;-0.602;2022-07-21T12:17:35;3.60;;;2.20;;
50355;SDS011;36264;51.296;-0.602;2022-07-21T12:20:13;5.35;;;2.40;;
50355;SDS011;36264;51.296;-0.602;2022-07-21T12:22:41;4.05;;;2.42;;
50355;SDS011;36264;51.296;-0.602;2022-07-21T12:25:15;3.13;;;2.20;;
50355;SDS011;36264;51.296;-0.602;2022-07-21T12:27:44;3.10;;;2.17;;
50355;SDS011;36264;51.296;-0.602;2022-07-21T12:33:02;4.07;;;2.55;;
50355;SDS011;36264;51.296;-0.602;2022-07-21T12:35:31;3.50;;;2.10;;
50355;SDS011;36264;51.296;-0.602;2022-07-21T12:38:15;4.15;;;2.50;;
50355;SDS011;36264;51.296;-0.602;2022-07-21T12:40:47;4.07;;;2.50;;
50355;SDS011;36264;51.296;-0.602;2022-07-21T12:43:18;4.32;;;2.58;;
50355;SDS011;36264;51.296;-0.602;2022-07-21T12:48:11;3.72;;;2.40;;
50355;SDS011;36264;51.296;-0.602;2022-07-21T12:50:38;3.97;;;2.30;;
50355;SDS011;36264;51.296;-0.602;2022-07-21T12:53:08;3.75;;;2.38;;
50355;SDS011;36264;51.296;-0.602;2022-07-21T12:55:34;3.45;;;2.45;;
50355;SDS011;36264;51.296;-0.602;2022-07-21T12:58:00;4.03;;;2.40;;
50355;SDS011;36264;51.296;-0.602;2022-07-21T13:00:25;3.40;;;2.20;;
50355;SDS011;36264;51.296;-0.602;2022-07-21T13:02:51;3.60;;;2.40;;
50355;SDS011;36264;51.296;-0.602;2022-07-21T13:05:20;3.75;;;2.30;;
50355;SDS011;36264;51.296;-0.602;2022-07-21T13:07:46;4.78;;;2.40;;
50355;SDS011;36264;51.296;-0.602;2022-07-21T13:10:12;3.65;;;2.40;;
50355;SDS011;36264;51.296;-0.602;2022-07-21T13:12:38;4.22;;;2.60;;
50355;SDS011;36264;51.296;-0.602;2022-07-21T13:15:04;3.70;;;2.50;;
50355;SDS011;36264;51.296;-0.602;2022-07-21T13:17:30;4.35;;;2.55;;
50355;SDS011;36264;51.296;-0.602;2022-07-21T13:19:56;4.85;;;2.70;;
50355;SDS011;36264;51.296;-0.602;2022-07-21T13:22:22;4.07;;;2.67;;
50355;SDS011;36264;51.296;-0.602;2022-07-21T13:24:47;4.68;;;2.58;;
50355;SDS011;36264;51.296;-0.602;2022-07-21T13:27:12;4.60;;;2.60;;
50355;SDS011;36264;51.296;-0.602;2022-07-21T13:29:38;4.78;;;2.88;;
50355;SDS011;36264;51.296;-0.602;2022-07-21T13:32:05;3.72;;;2.40;;
50355;SDS011;36264;51.296;-0.602;2022-07-21T13:34:31;3.38;;;2.20;;
50355;SDS011;36264;51.296;-0.602;2022-07-21T13:36:58;4.22;;;2.38;;
50355;SDS011;36264;51.296;-0.602;2022-07-21T13:39:23;3.58;;;2.40;;
50355;SDS011;36264;51.296;-0.602;2022-07-21T13:41:51;4.47;;;2.20;;
50355;SDS011;36264;51.296;-0.602;2022-07-21T13:44:17;7.47;;;2.88;;
50355;SDS011;36264;51.296;-0.602;2022-07-21T13:46:43;4.20;;;2.50;;
50355;SDS011;36264;51.296;-0.602;2022-07-21T13:49:08;3.80;;;2.42;;
50355;SDS011;36264;51.296;-0.602;2022-07-21T13:51:34;5.25;;;2.85;;
50355;SDS011;36264;51.296;-0.602;2022-07-21T13:53:59;5.22;;;2.65;;
50355;SDS011;36264;51.296;-0.602;2022-07-21T13:56:25;4.82;;;2.53;;
50355;SDS011;36264;51.296;-0.602;2022-07-21T13:58:50;5.75;;;3.15;;
50355;SDS011;36264;51.296;-0.602;2022-07-21T14:01:16;3.70;;;2.50;;
50355;SDS011;36264;51.296;-0.602;2022-07-21T14:03:42;4.90;;;2.63;;
50355;SDS011;36264;51.296;-0.602;2022-07-21T14:06:08;3.75;;;2.47;;
50355;SDS011;36264;51.296;-0.602;2022-07-21T14:08:34;4.75;;;2.88;;
50355;SDS011;36264;51.296;-0.602;2022-07-21T14:10:59;4.00;;;2.50;;
50355;SDS011;36264;51.296;-0.602;2022-07-21T14:13:25;3.20;;;2.22;;
50355;SDS011;36264;51.296;-0.602;2022-07-21T14:15:50;6.00;;;2.85;;
50355;SDS011;36264;51.296;-0.602;2022-07-21T14:18:16;3.75;;;2.40;;
50355;SDS011;36264;51.296;-0.602;2022-07-21T14:20:41;4.13;;;2.58;;
50355;SDS011;36264;51.296;-0.602;2022-07-21T14:23:06;4.13;;;2.45;;
50355;SDS011;36264;51.296;-0.602;2022-07-21T14:25:32;4.03;;;2.50;;
50355;SDS011;36264;51.296;-0.602;2022-07-21T14:27:58;4.95;;;2.80;;
50355;SDS011;36264;51.296;-0.602;2022-07-21T14:30:25;5.20;;;3.05;;
50355;SDS011;36264;51.296;-0.602;2022-07-21T14:32:51;5.00;;;3.40;;
50355;SDS011;36264;51.296;-0.602;2022-07-21T14:35:17;4.75;;;2.75;;
50355;SDS011;36264;51.296;-0.602;2022-07-21T14:37:44;4.40;;;2.80;;
50355;SDS011;36264;51.296;-0.602;2022-07-21T14:40:10;5.22;;;3.30;;
50355;SDS011;36264;51.296;-0.602;2022-07-21T14:42:37;3.40;;;2.53;;
50355;SDS011;36264;51.296;-0.602;2022-07-21T14:45:03;4.65;;;2.70;;
50355;SDS011;36264;51.296;-0.602;2022-07-21T14:47:30;4.40;;;2.60;;
50355;SDS011;36264;51.296;-0.602;2022-07-21T14:49:56;3.97;;;2.70;;
50355;SDS011;36264;51.296;-0.602;2022-07-21T14:52:22;5.07;;;3.20;;
50355;SDS011;36264;51.296;-0.602;2022-07-21T14:54:47;5.53;;;3.10;;
50355;SDS011;36264;51.296;-0.602;2022-07-21T14:57:13;5.00;;;3.13;;
50355;SDS011;36264;51.296;-0.602;2022-07-21T14:59:39;5.38;;;3.20;;
50355;SDS011;36264;51.296;-0.602;2022-07-21T15:02:04;4.35;;;3.15;;
50355;SDS011;36264;51.296;-0.602;2022-07-21T15:04:30;4.57;;;2.95;;
50355;SDS011;36264;51.296;-0.602;2022-07-21T15:06:56;4.07;;;2.70;;
50355;SDS011;36264;51.296;-0.602;2022-07-21T15:09:21;4.15;;;2.70;;